sensor_id;sensor_type;location;lat;lon;timestamp;P1;durP1;ratioP1;P2;durP2;ratioP2
53718;SDS011;39616;48.872;9.390;2023-07-20T00:01:20;2.60;;;1.27;;
53718;SDS011;39616;48.872;9.390;2023-07-20T00:03:50;4.13;;;0.80;;
53718;SDS011;39616;48.872;9.390;2023-07-20T00:06:25;5.38;;;1.00;;
53718;SDS011;39616;48.872;9.390;2023-07-20T00:08:57;4.88;;;0.90;;
53718;SDS011;39616;48.872;9.390;2023-07-20T00:11:28;1.52;;;0.90;;
53718;SDS011;39616;48.872;9.390;2023-07-20T00:13:59;3.45;;;0.85;;
53718;SDS011;39616;48.872;9.390;2023-07-20T00:16:29;3.75;;;0.88;;
53718;SDS011;39616;48.872;9.390;2023-07-20T00:19:00;4.50;;;1.23;;
53718;SDS011;39616;48.872;9.390;2023-07-20T00:21:30;1.42;;;0.90;;
53718;SDS011;39616;48.872;9.390;2023-07-20T00:24:00;3.00;;;0.95;;
53718;SDS011;39616;48.872;9.390;2023-07-20T00:26:31;4.18;;;0.90;;
53718;SDS011;39616;48.872;9.390;2023-07-20T00:29:01;2.70;;;0.80;;
53718;SDS011;39616;48.872;9.390;2023-07-20T00:31:31;2.58;;;1.00;;
53718;SDS011;39616;48.872;9.390;2023-07-20T00:34:02;1.95;;;0.90;;
53718;SDS011;39616;48.872;9.390;2023-07-20T00:36:36;3.42;;;0.90;;
53718;SDS011;39616;48.872;9.390;2023-07-20T00:39:06;2.47;;;1.08;;
53718;SDS011;39616;48.872;9.390;2023-07-20T00:41:37;2.58;;;0.90;;
53718;SDS011;39616;48.872;9.390;2023-07-20T00:44:07;1.38;;;0.80;;
53718;SDS011;39616;48.872;9.390;2023-07-20T00:46:38;5.65;;;1.25;;
53718;SDS011;39616;48.872;9.390;2023-07-20T00:49:08;2.50;;;1.00;;
53718;SDS011;39616;48.872;9.390;2023-07-20T00:51:38;1.20;;;0.90;;
53718;SDS011;39616;48.872;9.390;2023-07-20T00:54:09;3.45;;;1.00;;
53718;SDS011;39616;48.872;9.390;2023-07-20T00:56:39;1.92;;;0.88;;
53718;SDS011;39616;48.872;9.390;2023-07-20T00:59:09;2.67;;;0.85;;
53718;SDS011;39616;48.872;9.390;2023-07-20T01:01:40;2.33;;;0.90;;
53718;SDS011;39616;48.872;9.390;2023-07-20T01:04:11;5.10;;;1.00;;
53718;SDS011;39616;48.872;9.390;2023-07-20T01:06:45;1.20;;;1.10;;
53718;SDS011;39616;48.872;9.390;2023-07-20T01:09:26;1.67;;;0.90;;
53718;SDS011;39616;48.872;9.390;2023-07-20T01:12:05;1.25;;;0.82;;
53718;SDS011;39616;48.872;9.390;2023-07-20T01:14:40;1.20;;;0.88;;
53718;SDS011;39616;48.872;9.390;2023-07-20T01:17:10;2.25;;;1.02;;
53718;SDS011;39616;48.872;9.390;2023-07-20T01:19:40;3.10;;;1.00;;
53718;SDS011;39616;48.872;9.390;2023-07-20T01:25:21;1.17;;;0.93;;
53718;SDS011;39616;48.872;9.390;2023-07-20T01:33:45;3.33;;;1.10;;
53718;SDS011;39616;48.872;9.390;2023-07-20T01:36:17;0.98;;;0.73;;
53718;SDS011;39616;48.872;9.390;2023-07-20T01:38:49;3.47;;;0.85;;
53718;SDS011;39616;48.872;9.390;2023-07-20T01:41:20;3.33;;;0.95;;
53718;SDS011;39616;48.872;9.390;2023-07-20T01:43:50;1.80;;;1.00;;
53718;SDS011;39616;48.872;9.390;2023-07-20T01:46:21;1.67;;;0.80;;
53718;SDS011;39616;48.872;9.390;2023-07-20T01:48:51;2.58;;;0.90;;
53718;SDS011;39616;48.872;9.390;2023-07-20T01:51:22;1.45;;;0.82;;
53718;SDS011;39616;48.872;9.390;2023-07-20T01:53:53;1.35;;;0.90;;
53718;SDS011;39616;48.872;9.390;2023-07-20T01:56:23;3.53;;;0.80;;
53718;SDS011;39616;48.872;9.390;2023-07-20T01:58:53;2.05;;;1.02;;
53718;SDS011;39616;48.872;9.390;2023-07-20T02:01:23;2.83;;;0.90;;
53718;SDS011;39616;48.872;9.390;2023-07-20T02:03:54;5.05;;;0.90;;
53718;SDS011;39616;48.872;9.390;2023-07-20T02:06:24;2.10;;;1.05;;
53718;SDS011;39616;48.872;9.390;2023-07-20T02:08:54;3.83;;;1.17;;
53718;SDS011;39616;48.872;9.390;2023-07-20T02:11:25;1.83;;;0.80;;
53718;SDS011;39616;48.872;9.390;2023-07-20T02:13:55;1.77;;;0.88;;
53718;SDS011;39616;48.872;9.390;2023-07-20T02:16:25;3.00;;;0.80;;
53718;SDS011;39616;48.872;9.390;2023-07-20T02:18:55;2.47;;;0.95;;
53718;SDS011;39616;48.872;9.390;2023-07-20T02:21:26;2.92;;;0.80;;
53718;SDS011;39616;48.872;9.390;2023-07-20T02:23:57;3.97;;;1.00;;
53718;SDS011;39616;48.872;9.390;2023-07-20T02:26:27;3.38;;;1.10;;
53718;SDS011;39616;48.872;9.390;2023-07-20T02:28:58;1.42;;;0.90;;
53718;SDS011;39616;48.872;9.390;2023-07-20T02:31:28;3.92;;;1.10;;
53718;SDS011;39616;48.872;9.390;2023-07-20T02:33:58;1.05;;;0.88;;
53718;SDS011;39616;48.872;9.390;2023-07-20T02:36:29;1.02;;;0.90;;
53718;SDS011;39616;48.872;9.390;2023-07-20T02:38:59;1.75;;;1.00;;
53718;SDS011;39616;48.872;9.390;2023-07-20T02:41:33;3.10;;;0.80;;
53718;SDS011;39616;48.872;9.390;2023-07-20T02:44:03;1.48;;;0.80;;
53718;SDS011;39616;48.872;9.390;2023-07-20T02:46:34;3.35;;;1.08;;
53718;SDS011;39616;48.872;9.390;2023-07-20T02:49:05;2.38;;;1.17;;
53718;SDS011;39616;48.872;9.390;2023-07-20T02:51:35;1.27;;;1.00;;
53718;SDS011;39616;48.872;9.390;2023-07-20T02:54:05;1.13;;;0.90;;
53718;SDS011;39616;48.872;9.390;2023-07-20T02:56:36;2.22;;;1.23;;
53718;SDS011;39616;48.872;9.390;2023-07-20T02:59:06;2.15;;;1.10;;
53718;SDS011;39616;48.872;9.390;2023-07-20T03:01:36;1.85;;;0.90;;
53718;SDS011;39616;48.872;9.390;2023-07-20T03:04:07;3.63;;;0.80;;
53718;SDS011;39616;48.872;9.390;2023-07-20T03:06:40;2.17;;;0.90;;
53718;SDS011;39616;48.872;9.390;2023-07-20T03:09:10;1.85;;;0.90;;
53718;SDS011;39616;48.872;9.390;2023-07-20T03:11:40;4.00;;;1.42;;
53718;SDS011;39616;48.872;9.390;2023-07-20T03:14:11;2.45;;;1.00;;
53718;SDS011;39616;48.872;9.390;2023-07-20T03:16:41;2.78;;;0.90;;
53718;SDS011;39616;48.872;9.390;2023-07-20T03:19:12;4.18;;;0.98;;
53718;SDS011;39616;48.872;9.390;2023-07-20T03:21:42;2.92;;;0.90;;
53718;SDS011;39616;48.872;9.390;2023-07-20T03:24:12;3.13;;;1.00;;
53718;SDS011;39616;48.872;9.390;2023-07-20T03:26:42;8.68;;;0.93;;
53718;SDS011;39616;48.872;9.390;2023-07-20T03:29:13;3.17;;;1.00;;
53718;SDS011;39616;48.872;9.390;2023-07-20T03:31:43;1.30;;;1.05;;
53718;SDS011;39616;48.872;9.390;2023-07-20T03:34:13;2.40;;;1.05;;
53718;SDS011;39616;48.872;9.390;2023-07-20T03:36:44;2.70;;;1.17;;
53718;SDS011;39616;48.872;9.390;2023-07-20T03:39:14;3.45;;;1.23;;
53718;SDS011;39616;48.872;9.390;2023-07-20T03:41:44;2.33;;;1.00;;
53718;SDS011;39616;48.872;9.390;2023-07-20T03:44:14;2.38;;;1.10;;
53718;SDS011;39616;48.872;9.390;2023-07-20T03:46:45;4.82;;;1.10;;
53718;SDS011;39616;48.872;9.390;2023-07-20T03:49:15;2.08;;;1.02;;
53718;SDS011;39616;48.872;9.390;2023-07-20T03:51:45;2.45;;;1.25;;
53718;SDS011;39616;48.872;9.390;2023-07-20T03:54:16;3.65;;;1.20;;
53718;SDS011;39616;48.872;9.390;2023-07-20T03:56:46;1.50;;;0.85;;
53718;SDS011;39616;48.872;9.390;2023-07-20T03:59:16;3.20;;;1.35;;
53718;SDS011;39616;48.872;9.390;2023-07-20T04:01:46;3.85;;;1.40;;
53718;SDS011;39616;48.872;9.390;2023-07-20T04:04:17;1.80;;;0.85;;
53718;SDS011;39616;48.872;9.390;2023-07-20T04:06:47;2.85;;;1.10;;
53718;SDS011;39616;48.872;9.390;2023-07-20T04:09:17;2.65;;;1.20;;
53718;SDS011;39616;48.872;9.390;2023-07-20T04:11:48;2.75;;;1.20;;
53718;SDS011;39616;48.872;9.390;2023-07-20T04:14:18;2.63;;;0.95;;
53718;SDS011;39616;48.872;9.390;2023-07-20T04:16:48;1.35;;;0.90;;
53718;SDS011;39616;48.872;9.390;2023-07-20T04:19:19;4.18;;;0.98;;
53718;SDS011;39616;48.872;9.390;2023-07-20T04:21:49;1.75;;;1.02;;
53718;SDS011;39616;48.872;9.390;2023-07-20T04:24:19;5.50;;;1.10;;
53718;SDS011;39616;48.872;9.390;2023-07-20T04:26:50;1.15;;;0.90;;
53718;SDS011;39616;48.872;9.390;2023-07-20T04:29:20;2.95;;;1.20;;
53718;SDS011;39616;48.872;9.390;2023-07-20T04:31:53;4.43;;;1.10;;
53718;SDS011;39616;48.872;9.390;2023-07-20T04:34:23;1.65;;;0.95;;
53718;SDS011;39616;48.872;9.390;2023-07-20T04:36:53;1.77;;;1.00;;
53718;SDS011;39616;48.872;9.390;2023-07-20T04:39:23;2.47;;;0.95;;
53718;SDS011;39616;48.872;9.390;2023-07-20T04:41:54;1.33;;;0.90;;
53718;SDS011;39616;48.872;9.390;2023-07-20T04:44:24;2.88;;;1.10;;
53718;SDS011;39616;48.872;9.390;2023-07-20T04:46:54;4.35;;;1.00;;
53718;SDS011;39616;48.872;9.390;2023-07-20T04:49:25;3.35;;;1.10;;
53718;SDS011;39616;48.872;9.390;2023-07-20T04:51:55;2.47;;;1.15;;
53718;SDS011;39616;48.872;9.390;2023-07-20T04:54:26;2.47;;;1.13;;
53718;SDS011;39616;48.872;9.390;2023-07-20T04:56:57;3.50;;;1.15;;
53718;SDS011;39616;48.872;9.390;2023-07-20T04:59:27;2.42;;;1.05;;
53718;SDS011;39616;48.872;9.390;2023-07-20T05:01:57;2.88;;;1.17;;
53718;SDS011;39616;48.872;9.390;2023-07-20T05:04:28;2.17;;;1.00;;
53718;SDS011;39616;48.872;9.390;2023-07-20T05:06:58;5.00;;;1.05;;
53718;SDS011;39616;48.872;9.390;2023-07-20T05:09:28;2.83;;;1.20;;
53718;SDS011;39616;48.872;9.390;2023-07-20T05:11:59;1.58;;;0.80;;
53718;SDS011;39616;48.872;9.390;2023-07-20T05:14:29;3.05;;;1.10;;
53718;SDS011;39616;48.872;9.390;2023-07-20T05:16:59;3.60;;;1.20;;
53718;SDS011;39616;48.872;9.390;2023-07-20T05:19:29;3.03;;;1.10;;
53718;SDS011;39616;48.872;9.390;2023-07-20T05:22:00;4.97;;;1.08;;
53718;SDS011;39616;48.872;9.390;2023-07-20T05:24:31;1.10;;;0.75;;
53718;SDS011;39616;48.872;9.390;2023-07-20T05:27:01;4.50;;;1.30;;
53718;SDS011;39616;48.872;9.390;2023-07-20T05:29:31;1.33;;;0.93;;
53718;SDS011;39616;48.872;9.390;2023-07-20T05:32:03;3.60;;;0.90;;
53718;SDS011;39616;48.872;9.390;2023-07-20T05:34:33;2.25;;;1.17;;
53718;SDS011;39616;48.872;9.390;2023-07-20T05:37:04;3.00;;;1.00;;
53718;SDS011;39616;48.872;9.390;2023-07-20T05:39:35;1.75;;;0.98;;
53718;SDS011;39616;48.872;9.390;2023-07-20T05:42:05;2.30;;;1.08;;
53718;SDS011;39616;48.872;9.390;2023-07-20T05:44:36;2.67;;;0.98;;
53718;SDS011;39616;48.872;9.390;2023-07-20T05:47:06;2.60;;;0.90;;
53718;SDS011;39616;48.872;9.390;2023-07-20T05:49:37;1.60;;;0.88;;
53718;SDS011;39616;48.872;9.390;2023-07-20T05:52:07;3.92;;;1.10;;
53718;SDS011;39616;48.872;9.390;2023-07-20T05:54:37;2.78;;;0.95;;
53718;SDS011;39616;48.872;9.390;2023-07-20T05:57:08;1.67;;;0.80;;
53718;SDS011;39616;48.872;9.390;2023-07-20T05:59:38;5.53;;;1.08;;
53718;SDS011;39616;48.872;9.390;2023-07-20T06:02:10;3.55;;;0.90;;
53718;SDS011;39616;48.872;9.390;2023-07-20T06:04:41;1.80;;;1.10;;
53718;SDS011;39616;48.872;9.390;2023-07-20T06:07:11;3.22;;;1.05;;
53718;SDS011;39616;48.872;9.390;2023-07-20T06:09:42;4.07;;;0.88;;
53718;SDS011;39616;48.872;9.390;2023-07-20T06:12:15;4.55;;;1.00;;
53718;SDS011;39616;48.872;9.390;2023-07-20T06:14:45;3.78;;;0.98;;
53718;SDS011;39616;48.872;9.390;2023-07-20T06:17:16;2.58;;;1.00;;
53718;SDS011;39616;48.872;9.390;2023-07-20T06:19:46;7.85;;;1.50;;
53718;SDS011;39616;48.872;9.390;2023-07-20T06:22:17;1.20;;;0.80;;
53718;SDS011;39616;48.872;9.390;2023-07-20T06:24:47;4.60;;;1.10;;
53718;SDS011;39616;48.872;9.390;2023-07-20T06:27:18;2.80;;;0.90;;
53718;SDS011;39616;48.872;9.390;2023-07-20T06:29:48;3.60;;;0.90;;
53718;SDS011;39616;48.872;9.390;2023-07-20T06:32:18;2.30;;;0.98;;
53718;SDS011;39616;48.872;9.390;2023-07-20T06:34:48;1.92;;;0.80;;
53718;SDS011;39616;48.872;9.390;2023-07-20T06:37:19;1.85;;;0.85;;
53718;SDS011;39616;48.872;9.390;2023-07-20T06:39:50;2.72;;;0.80;;
53718;SDS011;39616;48.872;9.390;2023-07-20T06:42:20;1.50;;;0.80;;
53718;SDS011;39616;48.872;9.390;2023-07-20T06:44:50;2.40;;;0.95;;
53718;SDS011;39616;48.872;9.390;2023-07-20T06:47:21;1.52;;;0.80;;
53718;SDS011;39616;48.872;9.390;2023-07-20T06:49:51;3.55;;;1.15;;
53718;SDS011;39616;48.872;9.390;2023-07-20T06:52:21;8.43;;;1.00;;
53718;SDS011;39616;48.872;9.390;2023-07-20T06:54:51;5.53;;;0.90;;
53718;SDS011;39616;48.872;9.390;2023-07-20T06:57:22;3.50;;;0.85;;
53718;SDS011;39616;48.872;9.390;2023-07-20T06:59:52;4.15;;;1.08;;
53718;SDS011;39616;48.872;9.390;2023-07-20T07:02:23;2.40;;;1.00;;
53718;SDS011;39616;48.872;9.390;2023-07-20T07:04:53;3.17;;;1.10;;
53718;SDS011;39616;48.872;9.390;2023-07-20T07:07:25;1.88;;;0.90;;
53718;SDS011;39616;48.872;9.390;2023-07-20T07:09:55;2.33;;;1.00;;
53718;SDS011;39616;48.872;9.390;2023-07-20T07:12:25;2.05;;;0.80;;
53718;SDS011;39616;48.872;9.390;2023-07-20T07:14:56;3.30;;;1.10;;
53718;SDS011;39616;48.872;9.390;2023-07-20T07:17:26;4.70;;;1.00;;
53718;SDS011;39616;48.872;9.390;2023-07-20T07:19:57;7.25;;;1.20;;
53718;SDS011;39616;48.872;9.390;2023-07-20T07:22:27;1.88;;;1.00;;
53718;SDS011;39616;48.872;9.390;2023-07-20T07:24:57;2.38;;;0.80;;
53718;SDS011;39616;48.872;9.390;2023-07-20T07:27:27;2.40;;;0.80;;
53718;SDS011;39616;48.872;9.390;2023-07-20T07:29:58;3.00;;;0.88;;
53718;SDS011;39616;48.872;9.390;2023-07-20T07:32:28;1.88;;;0.93;;
53718;SDS011;39616;48.872;9.390;2023-07-20T07:34:58;3.67;;;1.13;;
53718;SDS011;39616;48.872;9.390;2023-07-20T07:37:30;5.40;;;1.10;;
53718;SDS011;39616;48.872;9.390;2023-07-20T07:40:01;6.43;;;1.00;;
53718;SDS011;39616;48.872;9.390;2023-07-20T07:42:31;8.15;;;1.27;;
53718;SDS011;39616;48.872;9.390;2023-07-20T07:45:01;2.10;;;1.30;;
53718;SDS011;39616;48.872;9.390;2023-07-20T07:47:32;2.10;;;0.90;;
53718;SDS011;39616;48.872;9.390;2023-07-20T07:50:02;5.57;;;1.05;;
53718;SDS011;39616;48.872;9.390;2023-07-20T07:52:33;5.93;;;1.05;;
53718;SDS011;39616;48.872;9.390;2023-07-20T07:55:03;0.90;;;0.70;;
53718;SDS011;39616;48.872;9.390;2023-07-20T07:57:34;7.85;;;0.80;;
53718;SDS011;39616;48.872;9.390;2023-07-20T08:00:04;3.22;;;0.90;;
53718;SDS011;39616;48.872;9.390;2023-07-20T08:02:41;1.65;;;0.80;;
53718;SDS011;39616;48.872;9.390;2023-07-20T08:05:12;4.63;;;0.80;;
53718;SDS011;39616;48.872;9.390;2023-07-20T08:07:42;8.35;;;1.00;;
53718;SDS011;39616;48.872;9.390;2023-07-20T08:10:13;3.80;;;1.00;;
53718;SDS011;39616;48.872;9.390;2023-07-20T08:12:43;2.13;;;0.85;;
53718;SDS011;39616;48.872;9.390;2023-07-20T08:15:13;2.65;;;0.90;;
53718;SDS011;39616;48.872;9.390;2023-07-20T08:17:44;2.88;;;0.98;;
53718;SDS011;39616;48.872;9.390;2023-07-20T08:20:14;2.90;;;0.90;;
53718;SDS011;39616;48.872;9.390;2023-07-20T08:22:46;3.33;;;0.80;;
53718;SDS011;39616;48.872;9.390;2023-07-20T08:25:16;0.95;;;0.70;;
53718;SDS011;39616;48.872;9.390;2023-07-20T08:27:47;2.97;;;0.90;;
53718;SDS011;39616;48.872;9.390;2023-07-20T08:30:21;4.30;;;0.98;;
53718;SDS011;39616;48.872;9.390;2023-07-20T08:32:52;1.65;;;0.80;;
53718;SDS011;39616;48.872;9.390;2023-07-20T08:35:22;1.10;;;0.77;;
53718;SDS011;39616;48.872;9.390;2023-07-20T08:37:52;4.00;;;0.77;;
53718;SDS011;39616;48.872;9.390;2023-07-20T08:40:23;3.38;;;0.90;;
53718;SDS011;39616;48.872;9.390;2023-07-20T08:42:54;5.63;;;1.40;;
53718;SDS011;39616;48.872;9.390;2023-07-20T08:45:25;1.40;;;0.70;;
53718;SDS011;39616;48.872;9.390;2023-07-20T08:47:58;2.58;;;0.90;;
53718;SDS011;39616;48.872;9.390;2023-07-20T08:50:30;1.90;;;0.70;;
53718;SDS011;39616;48.872;9.390;2023-07-20T08:53:01;3.10;;;0.95;;
53718;SDS011;39616;48.872;9.390;2023-07-20T08:55:32;3.10;;;0.80;;
53718;SDS011;39616;48.872;9.390;2023-07-20T08:58:04;2.65;;;0.60;;
53718;SDS011;39616;48.872;9.390;2023-07-20T09:00:38;4.18;;;0.90;;
53718;SDS011;39616;48.872;9.390;2023-07-20T09:03:10;1.92;;;0.70;;
53718;SDS011;39616;48.872;9.390;2023-07-20T09:05:41;1.70;;;0.90;;
53718;SDS011;39616;48.872;9.390;2023-07-20T09:08:11;0.77;;;0.77;;
53718;SDS011;39616;48.872;9.390;2023-07-20T09:10:42;2.75;;;0.77;;
53718;SDS011;39616;48.872;9.390;2023-07-20T09:13:15;1.90;;;0.75;;
53718;SDS011;39616;48.872;9.390;2023-07-20T09:15:46;3.28;;;0.77;;
53718;SDS011;39616;48.872;9.390;2023-07-20T09:18:24;2.45;;;0.70;;
53718;SDS011;39616;48.872;9.390;2023-07-20T09:21:01;2.17;;;0.60;;
53718;SDS011;39616;48.872;9.390;2023-07-20T09:23:33;3.22;;;0.60;;
53718;SDS011;39616;48.872;9.390;2023-07-20T09:26:10;2.78;;;0.70;;
53718;SDS011;39616;48.872;9.390;2023-07-20T09:28:51;2.28;;;0.70;;
53718;SDS011;39616;48.872;9.390;2023-07-20T09:31:22;1.02;;;0.50;;
53718;SDS011;39616;48.872;9.390;2023-07-20T09:33:53;16.75;;;1.05;;
53718;SDS011;39616;48.872;9.390;2023-07-20T09:36:26;5.65;;;0.70;;
53718;SDS011;39616;48.872;9.390;2023-07-20T09:38:58;4.22;;;0.70;;
53718;SDS011;39616;48.872;9.390;2023-07-20T09:41:29;1.15;;;0.60;;
53718;SDS011;39616;48.872;9.390;2023-07-20T09:44:00;0.95;;;0.70;;
53718;SDS011;39616;48.872;9.390;2023-07-20T09:49:14;7.50;;;0.77;;
53718;SDS011;39616;48.872;9.390;2023-07-20T09:51:45;2.03;;;1.08;;
53718;SDS011;39616;48.872;9.390;2023-07-20T09:54:16;1.70;;;0.70;;
53718;SDS011;39616;48.872;9.390;2023-07-20T09:56:47;2.17;;;0.80;;
53718;SDS011;39616;48.872;9.390;2023-07-20T09:59:18;1.20;;;0.60;;
53718;SDS011;39616;48.872;9.390;2023-07-20T10:01:49;2.88;;;0.70;;
53718;SDS011;39616;48.872;9.390;2023-07-20T10:04:23;2.22;;;0.73;;
53718;SDS011;39616;48.872;9.390;2023-07-20T10:06:55;1.27;;;0.70;;
53718;SDS011;39616;48.872;9.390;2023-07-20T10:09:26;3.67;;;0.68;;
53718;SDS011;39616;48.872;9.390;2023-07-20T10:11:57;1.90;;;0.70;;
53718;SDS011;39616;48.872;9.390;2023-07-20T10:14:29;4.15;;;0.90;;
53718;SDS011;39616;48.872;9.390;2023-07-20T10:17:04;7.93;;;0.70;;
53718;SDS011;39616;48.872;9.390;2023-07-20T10:22:15;0.80;;;0.70;;
53718;SDS011;39616;48.872;9.390;2023-07-20T10:24:58;2.70;;;0.80;;
53718;SDS011;39616;48.872;9.390;2023-07-20T10:27:29;4.75;;;0.77;;
53718;SDS011;39616;48.872;9.390;2023-07-20T10:29:59;1.88;;;0.60;;
53718;SDS011;39616;48.872;9.390;2023-07-20T10:32:32;4.60;;;0.70;;
53718;SDS011;39616;48.872;9.390;2023-07-20T10:35:11;0.60;;;0.40;;
53718;SDS011;39616;48.872;9.390;2023-07-20T10:37:52;1.52;;;0.70;;
53718;SDS011;39616;48.872;9.390;2023-07-20T10:40:38;1.80;;;0.60;;
53718;SDS011;39616;48.872;9.390;2023-07-20T10:43:09;1.95;;;0.63;;
53718;SDS011;39616;48.872;9.390;2023-07-20T10:48:21;1.77;;;0.52;;
53718;SDS011;39616;48.872;9.390;2023-07-20T10:51:11;1.55;;;0.70;;
53718;SDS011;39616;48.872;9.390;2023-07-20T10:53:45;0.80;;;0.52;;
53718;SDS011;39616;48.872;9.390;2023-07-20T10:56:22;4.80;;;0.50;;
53718;SDS011;39616;48.872;9.390;2023-07-20T10:58:59;0.70;;;0.70;;
53718;SDS011;39616;48.872;9.390;2023-07-20T11:01:31;6.55;;;1.52;;
53718;SDS011;39616;48.872;9.390;2023-07-20T11:04:05;1.38;;;0.70;;
53718;SDS011;39616;48.872;9.390;2023-07-20T11:06:42;0.63;;;0.40;;
53718;SDS011;39616;48.872;9.390;2023-07-20T11:09:14;0.93;;;0.57;;
53718;SDS011;39616;48.872;9.390;2023-07-20T11:11:46;3.40;;;1.00;;
53718;SDS011;39616;48.872;9.390;2023-07-20T11:14:22;0.98;;;0.70;;
53718;SDS011;39616;48.872;9.390;2023-07-20T11:16:54;2.15;;;0.50;;
53718;SDS011;39616;48.872;9.390;2023-07-20T11:19:25;0.70;;;0.47;;
53718;SDS011;39616;48.872;9.390;2023-07-20T11:21:56;1.48;;;0.55;;
53718;SDS011;39616;48.872;9.390;2023-07-20T11:24:27;0.93;;;0.45;;
53718;SDS011;39616;48.872;9.390;2023-07-20T11:26:58;2.58;;;0.75;;
53718;SDS011;39616;48.872;9.390;2023-07-20T11:29:28;0.70;;;0.50;;
53718;SDS011;39616;48.872;9.390;2023-07-20T11:31:58;3.00;;;0.47;;
53718;SDS011;39616;48.872;9.390;2023-07-20T11:34:30;1.40;;;0.70;;
53718;SDS011;39616;48.872;9.390;2023-07-20T11:37:02;2.35;;;0.60;;
53718;SDS011;39616;48.872;9.390;2023-07-20T11:39:33;2.42;;;0.50;;
53718;SDS011;39616;48.872;9.390;2023-07-20T11:42:04;2.25;;;0.52;;
53718;SDS011;39616;48.872;9.390;2023-07-20T11:44:35;2.30;;;0.60;;
53718;SDS011;39616;48.872;9.390;2023-07-20T11:47:09;1.45;;;0.50;;
53718;SDS011;39616;48.872;9.390;2023-07-20T11:49:42;6.05;;;0.80;;
53718;SDS011;39616;48.872;9.390;2023-07-20T11:52:14;3.75;;;0.60;;
53718;SDS011;39616;48.872;9.390;2023-07-20T11:54:46;2.10;;;1.40;;
53718;SDS011;39616;48.872;9.390;2023-07-20T11:57:20;0.77;;;0.70;;
53718;SDS011;39616;48.872;9.390;2023-07-20T11:59:54;1.70;;;0.50;;
53718;SDS011;39616;48.872;9.390;2023-07-20T12:02:29;1.02;;;0.50;;
53718;SDS011;39616;48.872;9.390;2023-07-20T12:05:00;2.72;;;0.60;;
53718;SDS011;39616;48.872;9.390;2023-07-20T12:07:34;1.00;;;0.50;;
53718;SDS011;39616;48.872;9.390;2023-07-20T12:10:07;1.25;;;0.47;;
53718;SDS011;39616;48.872;9.390;2023-07-20T12:12:42;0.60;;;0.50;;
53718;SDS011;39616;48.872;9.390;2023-07-20T12:17:51;0.55;;;0.40;;
53718;SDS011;39616;48.872;9.390;2023-07-20T12:20:29;0.90;;;0.55;;
53718;SDS011;39616;48.872;9.390;2023-07-20T12:23:01;0.85;;;0.50;;
53718;SDS011;39616;48.872;9.390;2023-07-20T12:25:33;1.80;;;0.55;;
53718;SDS011;39616;48.872;9.390;2023-07-20T12:28:11;2.85;;;0.60;;
53718;SDS011;39616;48.872;9.390;2023-07-20T12:30:46;2.53;;;0.50;;
53718;SDS011;39616;48.872;9.390;2023-07-20T12:33:18;0.70;;;0.50;;
53718;SDS011;39616;48.872;9.390;2023-07-20T12:35:48;1.00;;;0.50;;
53718;SDS011;39616;48.872;9.390;2023-07-20T12:38:19;2.40;;;0.60;;
53718;SDS011;39616;48.872;9.390;2023-07-20T12:40:50;6.78;;;0.68;;
53718;SDS011;39616;48.872;9.390;2023-07-20T12:43:20;0.80;;;0.55;;
53718;SDS011;39616;48.872;9.390;2023-07-20T12:45:51;0.80;;;0.50;;
53718;SDS011;39616;48.872;9.390;2023-07-20T12:48:22;0.75;;;0.40;;
53718;SDS011;39616;48.872;9.390;2023-07-20T12:50:55;3.13;;;0.50;;
53718;SDS011;39616;48.872;9.390;2023-07-20T12:53:25;0.68;;;0.60;;
53718;SDS011;39616;48.872;9.390;2023-07-20T12:55:55;1.50;;;0.65;;
53718;SDS011;39616;48.872;9.390;2023-07-20T12:58:26;2.70;;;0.52;;
53718;SDS011;39616;48.872;9.390;2023-07-20T13:00:56;1.90;;;0.52;;
53718;SDS011;39616;48.872;9.390;2023-07-20T13:03:27;3.08;;;0.70;;
53718;SDS011;39616;48.872;9.390;2023-07-20T13:05:57;4.20;;;0.80;;
53718;SDS011;39616;48.872;9.390;2023-07-20T13:08:28;3.72;;;0.68;;
53718;SDS011;39616;48.872;9.390;2023-07-20T13:10:58;4.05;;;0.80;;
53718;SDS011;39616;48.872;9.390;2023-07-20T13:13:30;3.22;;;0.60;;
53718;SDS011;39616;48.872;9.390;2023-07-20T13:16:01;0.90;;;0.68;;
53718;SDS011;39616;48.872;9.390;2023-07-20T13:18:31;1.15;;;0.60;;
53718;SDS011;39616;48.872;9.390;2023-07-20T13:21:01;1.40;;;0.50;;
53718;SDS011;39616;48.872;9.390;2023-07-20T13:23:32;1.77;;;0.60;;
53718;SDS011;39616;48.872;9.390;2023-07-20T13:26:05;0.90;;;0.70;;
53718;SDS011;39616;48.872;9.390;2023-07-20T13:28:35;2.08;;;0.60;;
53718;SDS011;39616;48.872;9.390;2023-07-20T13:31:06;2.03;;;0.50;;
53718;SDS011;39616;48.872;9.390;2023-07-20T13:33:36;1.33;;;0.55;;
53718;SDS011;39616;48.872;9.390;2023-07-20T13:36:07;0.60;;;0.50;;
53718;SDS011;39616;48.872;9.390;2023-07-20T13:38:37;3.95;;;0.57;;
53718;SDS011;39616;48.872;9.390;2023-07-20T13:41:08;3.63;;;0.52;;
53718;SDS011;39616;48.872;9.390;2023-07-20T13:43:38;1.45;;;0.63;;
53718;SDS011;39616;48.872;9.390;2023-07-20T13:46:08;1.40;;;0.43;;
53718;SDS011;39616;48.872;9.390;2023-07-20T13:48:38;5.22;;;1.70;;
53718;SDS011;39616;48.872;9.390;2023-07-20T13:51:09;1.10;;;0.70;;
53718;SDS011;39616;48.872;9.390;2023-07-20T13:53:39;1.02;;;0.60;;
53718;SDS011;39616;48.872;9.390;2023-07-20T13:56:10;2.88;;;0.55;;
53718;SDS011;39616;48.872;9.390;2023-07-20T13:58:40;0.73;;;0.50;;
53718;SDS011;39616;48.872;9.390;2023-07-20T14:01:11;3.40;;;0.60;;
53718;SDS011;39616;48.872;9.390;2023-07-20T14:03:41;1.45;;;0.40;;
53718;SDS011;39616;48.872;9.390;2023-07-20T14:06:11;4.85;;;0.60;;
53718;SDS011;39616;48.872;9.390;2023-07-20T14:08:43;1.42;;;0.32;;
53718;SDS011;39616;48.872;9.390;2023-07-20T14:11:16;3.45;;;0.43;;
53718;SDS011;39616;48.872;9.390;2023-07-20T14:13:46;0.40;;;0.40;;
53718;SDS011;39616;48.872;9.390;2023-07-20T14:16:17;1.85;;;0.45;;
53718;SDS011;39616;48.872;9.390;2023-07-20T14:18:47;1.05;;;0.60;;
53718;SDS011;39616;48.872;9.390;2023-07-20T14:21:19;1.77;;;0.50;;
53718;SDS011;39616;48.872;9.390;2023-07-20T14:23:52;1.25;;;0.52;;
53718;SDS011;39616;48.872;9.390;2023-07-20T14:26:25;1.02;;;0.50;;
53718;SDS011;39616;48.872;9.390;2023-07-20T14:28:55;0.90;;;0.60;;
53718;SDS011;39616;48.872;9.390;2023-07-20T14:31:26;1.50;;;0.50;;
53718;SDS011;39616;48.872;9.390;2023-07-20T14:33:56;0.43;;;0.43;;
53718;SDS011;39616;48.872;9.390;2023-07-20T14:36:26;3.95;;;0.65;;
53718;SDS011;39616;48.872;9.390;2023-07-20T14:38:57;1.08;;;0.50;;
53718;SDS011;39616;48.872;9.390;2023-07-20T14:41:27;1.17;;;0.50;;
53718;SDS011;39616;48.872;9.390;2023-07-20T14:43:57;1.45;;;0.50;;
53718;SDS011;39616;48.872;9.390;2023-07-20T14:46:27;0.50;;;0.40;;
53718;SDS011;39616;48.872;9.390;2023-07-20T14:48:58;5.32;;;0.60;;
53718;SDS011;39616;48.872;9.390;2023-07-20T14:51:28;0.80;;;0.40;;
53718;SDS011;39616;48.872;9.390;2023-07-20T14:54:03;3.92;;;0.52;;
53718;SDS011;39616;48.872;9.390;2023-07-20T14:56:33;3.33;;;0.50;;
53718;SDS011;39616;48.872;9.390;2023-07-20T14:59:03;0.60;;;0.50;;
53718;SDS011;39616;48.872;9.390;2023-07-20T15:01:35;1.58;;;0.60;;
53718;SDS011;39616;48.872;9.390;2023-07-20T15:04:06;1.63;;;0.40;;
53718;SDS011;39616;48.872;9.390;2023-07-20T15:06:36;1.35;;;0.50;;
53718;SDS011;39616;48.872;9.390;2023-07-20T15:09:07;2.30;;;0.50;;
53718;SDS011;39616;48.872;9.390;2023-07-20T15:11:38;1.08;;;0.50;;
53718;SDS011;39616;48.872;9.390;2023-07-20T15:14:08;1.52;;;0.45;;
53718;SDS011;39616;48.872;9.390;2023-07-20T15:16:38;2.10;;;0.50;;
53718;SDS011;39616;48.872;9.390;2023-07-20T15:19:09;3.10;;;0.50;;
53718;SDS011;39616;48.872;9.390;2023-07-20T15:21:39;2.13;;;0.60;;
53718;SDS011;39616;48.872;9.390;2023-07-20T15:24:09;3.22;;;0.60;;
53718;SDS011;39616;48.872;9.390;2023-07-20T15:26:40;0.40;;;0.40;;
53718;SDS011;39616;48.872;9.390;2023-07-20T15:29:11;5.63;;;0.52;;
53718;SDS011;39616;48.872;9.390;2023-07-20T15:31:41;1.67;;;0.80;;